Zhangzhou, China
Current Conditions -  °F | °C
As of 5:00 AM on Tuesday 25 Nov 2014 (Local Time) from ZSAM Reporting Station
Haze Haze  
Wind Chill: 66°   Ceiling: Unl
Heat Index: 66°   Visibility: 1.5mi
Dew Point: 66°   Wind: 0mph
Humidity: 100%   Direction: NA
Pressure: 29.91"   Gusts: NA
Location:  24.52°N, 117.67°E
Report Text: ZSAM 242100Z 00000MPS 2500 BR FEW005 19/19 Q1013 NOSIG
Loading
Personal Weather Stations






























Interactive Weather Map New forecast layout! Learn more

10-Day Weather Forecast

Advertisements
Track Severe Weather on mobile